AirNav   Duncan Aviation - Near you to keep you flying
 
 794 users online  

NV33 Farias Wheel Airport
Smith Valley, Nevada, USA

GOING TO SMITH VALLEY?


FAA INFORMATION EFFECTIVE 01 DECEMBER 2022

Location

FAA Identifier: NV33
Lat/Long: 38-49-59.6800N 119-23-45.5810W
38-49.994667N 119-23.759683W
38.8332444,-119.3959947
(estimated)
Elevation: 4848 ft. / 1477.7 m (surveyed)
Variation: 16E (1985)
From city: 6 miles E of SMITH VALLEY, NV
Time zone: UTC -8 (UTC -7 during Daylight Saving Time)
Zip code: 89444

Airport Operations

Airport use: Private use. Permission required prior to landing
Activation date: 10/1965
Control tower: no
ARTCC: OAKLAND CENTER
FSS: RENO FLIGHT SERVICE STATION
Attendance: UNATNDD
FOR SVC - 775-465-2383.
Wind indicator: lighted
Segmented circle: no
Lights: ACTVT MIRL RWY 16/34 - 122.9.
Beacon: white-green (lighted land airport)
ACTVT ROTG BCN - 122.9.

Airport Communications

WX AWOS-3PT at MEV (19 nm NW): 119.325 (775-782-6264)

Airport Services

Parking: tiedowns

Runway Information

Runway 16/34

Dimensions: 3391 x 22 ft. / 1034 x 7 m
CNTR 22 FT ASPH ON 100 FT WIDE DIRT RWY.
Surface: asphalt, in good condition
Runway edge lights: non-standard
NSTD MIRL; NOT FULL LEN; EXTDS ONLY FIRST 2/3 OF RWYS.
RUNWAY 16  RUNWAY 34
Traffic pattern: leftright
Markings: nonenone
Obstructions: 30 ft. tree, 350 ft. from runway
ROAD 120 FT FM THR.
40 ft. tree, 200 ft. from runway
DGNL ROAD 100 FT FM THR.

Airport Ownership and Management from official FAA records

Ownership: Privately-owned
Owner: VALLEY VIEW AIRPORT LLC
PO BOX 347
WELLINGTON, NV 89444-0347
Phone 360-852-3400
Manager: PETER HANSEN
563 UPPER COLONY ROAD
WELLINGTON, NV 89444
Phone 360-852-3400

Airport Operational Statistics

Aircraft based on the field: 18
Single engine airplanes: 18
    
Aircraft operations: avg 29/week *
78% local general aviation
20% transient general aviation
2% air taxi
* for 12-month period ending 05 July 2006

Additional Remarks

FOR CD CTC OAKLAND ARTCC AT 510-745-3380.
PPR FOR OPS - AMGR.

Instrument Procedures

There are no published instrument procedures at NV33.

Some nearby airports with instrument procedures:

KMEV - Minden-Tahoe Airport (19 nm NW)
KCXP - Carson City Airport (27 nm NW)
KTVL - Lake Tahoe Airport (28 nm W)
KSPZ - Silver Springs Airport (35 nm N)
KHTH - Hawthorne Industrial Airport (40 nm SE)
 
Loc | Ops | Rwys | IFR | FBO | Links
Com | Nav | Svcs | Stats | Notes
Area around NV33 (Farias Wheel Airport)
 
Road maps at: MapQuest Bing Google
 
Aerial photo
WARNING: Photo may not be current or correct
Aerial photo of NV33 (Farias Wheel Airport)
Photo taken 14-Jul-2007

Do you have a better or more recent aerial photo of Farias Wheel Airport that you would like to share? If so, please send us your photo.

 
Sectional chart

 
Airport distance calculator
Flying to Farias Wheel Airport? Find the distance to fly.

From to NV33

Sunrise and sunset
Times for 05-Dec-2022
 Local
(UTC-8)
 Zulu
(UTC)
Morning civil twilight06:3214:32
Sunrise07:0215:02
Sunset16:3500:35
Evening civil twilight17:0401:04

Current date and time
Zulu (UTC)  06-Dec-2022 04:38:18
Local (UTC-8)  05-Dec-2022 20:38:18
 
METAR
KMEV 
19nm NW 
060415Z AUTO 05007KT 10SM OVC060 M01/M04 A2995 RMK AO2
KCXP 
27nm NW 
060415Z AUTO 31004KT 9SM -RA SCT036 BKN045 OVC055 02/M04 A2997 RMK AO2
KTVL 
28nm W 
060353Z AUTO 17004KT 9SM OVC020 M03/M06 A2992 RMK AO2 SNB33E51 SLP145 P0000 T10331056
KBAN 
29nm S 
060352Z AUTO 24003KT 10SM CLR M03/M09 A2989 RMK AO2 SLP133 T10331094 $
TAF
KMEV 
19nm NW 
051730Z 0518/0618 16011KT P6SM VCSH BKN040 BKN100 FM052000 25011G18KT P6SM VCSH BKN045 FM060100 12005KT P6SM OVC050
NOTAMs
Click for the latest NOTAMs
NOTAMs are issued by the DoD/FAA and will open in a separate window not controlled by AirNav.

 

 
 

Would you like to see your business listed on this page?

 If your business provides an interesting product or service to pilots, flight crews, aircraft, or users of the Farias Wheel Airport, you should consider listing it here.  To start the listing process, click on the button below
 
Add a business
 

Other Pages about Farias Wheel Airport

www.nv33.com
 
Update a link
 
Copyright © AirNav, LLC. All rights reserved. Privacy Policy  Contact